Time;durP1;ratioP1;P1;durP2;ratioP2;P2;SDS_P1;SDS_P2;PMS_P1;PMS_P2;Temp;Humidity;BMP_temperature;BMP_pressure;BME280_temperature;BME280_humidity;BME280_pressure;Samples;Min_cycle;Max_cycle;Signal;HPM_P1;HPM_P2
2023/04/23 00:01:05;;;;;;;0.10;0.10;;;8.20;86.90;;;;;;4970172;28;20511;-64
2023/04/23 00:03:34;;;;;;;0.00;0.00;;;8.30;86.90;;;;;;4953208;28;20039;-64
2023/04/23 00:06:05;;;;;;;0.00;0.00;;;8.30;87.00;;;;;;4969790;28;20047;-63
2023/04/23 00:08:32;;;;;;;0.00;0.00;;;8.30;87.00;;;;;;4952582;28;20039;-63
2023/04/23 00:10:58;;;;;;;0.00;0.00;;;8.30;87.10;;;;;;4952812;28;20454;-63
2023/04/23 00:13:24;;;;;;;0.00;0.00;;;8.30;87.20;;;;;;4969230;28;20104;-64
2023/04/23 00:15:50;;;;;;;0.08;0.08;;;8.30;87.20;;;;;;4970091;28;20054;-63
2023/04/23 00:18:18;;;;;;;0.00;0.00;;;8.40;87.30;;;;;;4970731;28;20104;-63
2023/04/23 00:20:44;;;;;;;0.00;0.00;;;8.40;87.40;;;;;;4955813;28;20125;-64
2023/04/23 00:23:10;;;;;;;0.00;0.00;;;8.30;87.40;;;;;;4939806;28;20137;-64
2023/04/23 00:25:36;;;;;;;0.00;0.00;;;8.40;87.50;;;;;;4973715;28;20559;-63
2023/04/23 00:28:02;;;;;;;0.43;0.35;;;8.40;87.70;;;;;;4973641;28;20038;-64
2023/04/23 00:30:27;;;;;;;0.00;0.00;;;8.40;87.70;;;;;;4973730;28;20035;-63
2023/04/23 00:32:53;;;;;;;0.00;0.00;;;8.30;87.60;;;;;;4972899;28;20057;-64
2023/04/23 00:35:19;;;;;;;0.00;0.00;;;8.30;87.70;;;;;;4973124;28;20043;-63
2023/04/23 00:37:45;;;;;;;0.00;0.00;;;8.30;87.70;;;;;;4973470;28;20555;-63
2023/04/23 00:40:11;;;;;;;0.00;0.00;;;8.40;87.70;;;;;;4955898;28;20073;-63
2023/04/23 00:42:38;;;;;;;0.00;0.00;;;8.40;87.80;;;;;;4972925;28;20530;-63
2023/04/23 00:45:07;;;;;;;0.00;0.00;;;8.40;87.80;;;;;;4973409;28;20570;-63
2023/04/23 00:47:33;;;;;;;0.00;0.00;;;8.40;87.80;;;;;;4972953;28;20054;-63
2023/04/23 00:50:00;;;;;;;0.00;0.00;;;8.40;87.90;;;;;;4972569;28;20053;-64
2023/04/23 00:52:25;;;;;;;0.00;0.00;;;8.40;87.80;;;;;;4972937;28;20173;-63
2023/04/23 00:54:51;;;;;;;0.10;0.10;;;8.40;87.80;;;;;;4973001;28;20657;-63
2023/04/23 00:57:17;;;;;;;0.00;0.00;;;8.30;87.80;;;;;;4953660;28;20051;-63
2023/04/23 00:59:43;;;;;;;0.00;0.00;;;8.30;87.80;;;;;;4972714;28;20787;-63
2023/04/23 01:02:09;;;;;;;0.00;0.00;;;8.30;87.80;;;;;;4969184;28;20416;-63
2023/04/23 01:04:36;;;;;;;0.00;0.00;;;8.30;87.80;;;;;;4972591;28;20038;-64
2023/04/23 01:07:02;;;;;;;0.00;0.00;;;8.30;87.80;;;;;;4972899;28;20050;-63
2023/04/23 01:09:28;;;;;;;0.00;0.00;;;8.40;87.80;;;;;;4971655;28;20043;-63
2023/04/23 01:11:56;;;;;;;0.00;0.00;;;8.40;87.80;;;;;;4971111;28;20511;-64
2023/04/23 01:14:22;;;;;;;0.00;0.00;;;8.40;87.80;;;;;;4973002;28;20050;-63
2023/04/23 01:16:48;;;;;;;2.35;0.98;;;8.30;87.70;;;;;;4971441;28;20042;-63
2023/04/23 01:19:14;;;;;;;0.00;0.00;;;8.40;87.80;;;;;;4971400;28;20623;-63
2023/04/23 01:21:41;;;;;;;0.00;0.00;;;8.40;87.80;;;;;;4955440;28;20050;-63
2023/04/23 01:24:08;;;;;;;0.00;0.00;;;8.40;87.90;;;;;;4972307;28;20063;-63
2023/04/23 01:26:34;;;;;;;0.00;0.00;;;8.30;87.90;;;;;;4971425;28;20133;-63
2023/04/23 01:29:00;;;;;;;0.00;0.00;;;8.30;87.90;;;;;;4972628;28;20118;-63
2023/04/23 01:31:29;;;;;;;0.00;0.00;;;8.30;88.00;;;;;;4971833;28;20122;-63
2023/04/23 01:33:56;;;;;;;0.00;0.00;;;8.30;87.90;;;;;;4972633;28;20162;-64
2023/04/23 01:36:22;;;;;;;0.00;0.00;;;8.20;87.90;;;;;;4972439;28;20035;-64
2023/04/23 01:38:48;;;;;;;0.00;0.00;;;8.30;87.90;;;;;;4971936;28;20061;-63
2023/04/23 01:41:14;;;;;;;7.13;2.15;;;8.30;87.90;;;;;;4971713;28;20042;-64
2023/04/23 01:43:41;;;;;;;0.00;0.00;;;8.20;87.90;;;;;;4972323;28;20047;-64
2023/04/23 01:46:07;;;;;;;0.00;0.00;;;8.20;88.00;;;;;;4972194;28;20053;-64
2023/04/23 01:48:33;;;;;;;0.00;0.00;;;8.20;87.90;;;;;;4970696;28;20051;-63
2023/04/23 01:50:59;;;;;;;0.00;0.00;;;8.20;88.00;;;;;;4972055;28;20066;-64
2023/04/23 01:53:25;;;;;;;0.00;0.00;;;8.30;88.00;;;;;;4972277;28;20114;-64
2023/04/23 01:55:51;;;;;;;0.20;0.20;;;8.20;88.00;;;;;;4972161;28;20202;-63
2023/04/23 01:58:18;;;;;;;0.00;0.00;;;8.20;88.00;;;;;;4972300;28;20078;-63
2023/04/23 02:00:43;;;;;;;0.00;0.00;;;8.20;88.00;;;;;;4971650;28;20047;-63
2023/04/23 02:03:09;;;;;;;0.10;0.10;;;8.20;88.00;;;;;;4954787;28;20062;-64
2023/04/23 02:05:35;;;;;;;0.00;0.00;;;8.20;88.10;;;;;;4972140;28;20514;-64
2023/04/23 02:08:02;;;;;;;0.00;0.00;;;8.20;88.20;;;;;;4971133;28;20050;-64
2023/04/23 02:10:29;;;;;;;0.32;0.32;;;8.20;88.20;;;;;;4971476;28;20058;-64
2023/04/23 02:12:56;;;;;;;0.00;0.00;;;8.20;88.20;;;;;;4971378;28;20125;-63
2023/04/23 02:15:21;;;;;;;0.00;0.00;;;8.20;88.40;;;;;;4971929;28;20148;-64
2023/04/23 02:17:49;;;;;;;0.03;0.03;;;8.20;88.50;;;;;;4971421;28;20507;-63
2023/04/23 02:20:15;;;;;;;0.00;0.00;;;8.20;88.70;;;;;;4970378;28;20054;-64
2023/04/23 02:22:41;;;;;;;0.00;0.00;;;8.20;88.90;;;;;;4971286;28;20143;-64
2023/04/23 02:25:07;;;;;;;0.00;0.00;;;8.20;89.00;;;;;;4971460;28;20410;-63
2023/04/23 02:27:33;;;;;;;0.10;0.10;;;8.20;89.00;;;;;;4971175;28;20074;-63
2023/04/23 02:29:59;;;;;;;0.00;0.00;;;8.20;89.30;;;;;;4971122;28;20130;-63
2023/04/23 02:32:26;;;;;;;0.00;0.00;;;8.20;89.50;;;;;;4971064;28;20138;-63
2023/04/23 02:34:52;;;;;;;0.00;0.00;;;8.20;89.60;;;;;;4970914;28;20125;-63
2023/04/23 02:37:18;;;;;;;0.00;0.00;;;8.20;89.70;;;;;;4971446;28;20141;-63
2023/04/23 02:39:44;;;;;;;0.20;0.20;;;8.30;89.80;;;;;;4953952;28;20053;-63
2023/04/23 02:42:10;;;;;;;0.03;0.03;;;8.30;90.00;;;;;;4967893;28;20042;-63
2023/04/23 02:44:36;;;;;;;0.10;0.10;;;8.30;89.90;;;;;;4953826;28;20070;-63
2023/04/23 02:47:01;;;;;;;0.10;0.10;;;8.30;90.20;;;;;;4970719;28;20133;-64
2023/04/23 02:49:27;;;;;;;0.30;0.30;;;8.30;90.10;;;;;;4971083;28;20169;-63
2023/04/23 02:51:52;;;;;;;1.27;1.17;;;8.30;90.30;;;;;;4969769;28;20538;-63
2023/04/23 02:54:18;;;;;;;0.10;0.10;;;8.30;90.40;;;;;;4953782;28;20053;-64
2023/04/23 02:56:44;;;;;;;0.00;0.00;;;8.30;90.60;;;;;;4971306;28;20407;-63
2023/04/23 02:59:09;;;;;;;0.00;0.00;;;8.30;90.70;;;;;;4953799;28;20659;-63
2023/04/23 03:01:35;;;;;;;1.08;0.52;;;8.30;90.50;;;;;;4970714;28;20078;-63
2023/04/23 03:04:02;;;;;;;0.52;0.52;;;8.30;90.50;;;;;;4953677;28;20089;-64
2023/04/23 03:06:28;;;;;;;0.00;0.00;;;8.30;90.70;;;;;;4970444;28;20051;-64
2023/04/23 03:08:53;;;;;;;0.28;0.28;;;8.30;90.70;;;;;;4953703;28;20047;-64
2023/04/23 03:11:20;;;;;;;0.00;0.00;;;8.30;90.70;;;;;;4970511;28;20414;-63
2023/04/23 03:13:45;;;;;;;0.00;0.00;;;8.30;90.90;;;;;;4937062;28;20047;-64
2023/04/23 03:16:11;;;;;;;0.10;0.10;;;8.30;90.90;;;;;;4970795;28;20184;-64
2023/04/23 03:18:36;;;;;;;1.73;1.30;;;8.40;91.00;;;;;;4970463;28;20118;-64
2023/04/23 03:21:02;;;;;;;0.00;0.00;;;8.30;91.00;;;;;;4936623;28;20051;-63
2023/04/23 03:23:28;;;;;;;0.10;0.10;;;8.40;91.10;;;;;;4953004;28;20035;-64
2023/04/23 03:25:54;;;;;;;0.77;0.77;;;8.30;91.00;;;;;;4953200;28;20707;-63
2023/04/23 03:28:19;;;;;;;0.03;0.03;;;8.30;90.90;;;;;;4953221;28;20047;-64
2023/04/23 03:30:45;;;;;;;0.00;0.00;;;8.30;91.10;;;;;;4969978;28;20042;-63
2023/04/23 03:33:10;;;;;;;0.10;0.10;;;8.40;91.20;;;;;;4970372;28;20837;-63
2023/04/23 03:35:36;;;;;;;0.10;0.10;;;8.40;91.30;;;;;;4970653;28;20384;-63
2023/04/23 03:38:02;;;;;;;0.20;0.20;;;8.50;91.40;;;;;;4970046;28;20066;-63
2023/04/23 03:40:27;;;;;;;0.30;0.30;;;8.50;91.30;;;;;;4969697;28;20060;-64
2023/04/23 03:42:53;;;;;;;0.00;0.00;;;8.50;91.20;;;;;;4969622;28;20039;-63
2023/04/23 03:45:18;;;;;;;0.00;0.00;;;8.50;91.20;;;;;;4970378;28;20462;-63
2023/04/23 03:47:44;;;;;;;0.00;0.00;;;8.60;91.20;;;;;;4969598;28;20050;-64
2023/04/23 03:50:12;;;;;;;0.10;0.10;;;8.60;91.20;;;;;;4968692;28;20055;-64
2023/04/23 03:52:37;;;;;;;0.75;0.75;;;8.60;91.20;;;;;;4952150;28;20592;-63
2023/04/23 03:55:03;;;;;;;0.45;0.45;;;8.60;91.20;;;;;;4956054;28;20050;-64
2023/04/23 03:57:29;;;;;;;0.10;0.10;;;8.60;91.10;;;;;;4969722;28;20050;-64
2023/04/23 03:59:54;;;;;;;0.00;0.00;;;8.70;91.30;;;;;;4969525;28;20093;-64
2023/04/23 04:02:20;;;;;;;0.00;0.00;;;8.60;91.40;;;;;;4969535;28;20043;-63
2023/04/23 04:04:48;;;;;;;0.00;0.00;;;8.70;91.20;;;;;;4970234;28;20101;-64
2023/04/23 04:07:14;;;;;;;0.22;0.22;;;8.70;91.10;;;;;;4970121;28;20105;-64
2023/04/23 04:09:39;;;;;;;0.00;0.00;;;8.70;91.00;;;;;;4969144;28;20042;-63
2023/04/23 04:12:06;;;;;;;0.00;0.00;;;8.80;90.90;;;;;;4953072;28;20057;-63
2023/04/23 04:14:32;;;;;;;0.45;0.45;;;8.80;90.80;;;;;;4969813;28;20065;-64
2023/04/23 04:16:57;;;;;;;0.20;0.20;;;8.70;90.90;;;;;;4952687;28;20082;-64
2023/04/23 04:19:23;;;;;;;0.00;0.00;;;8.70;90.80;;;;;;4969918;28;20042;-63
2023/04/23 04:21:50;;;;;;;0.10;0.10;;;8.80;90.80;;;;;;4968329;28;20412;-63
2023/04/23 04:24:16;;;;;;;0.25;0.25;;;8.80;90.80;;;;;;4952394;28;20504;-64
2023/04/23 04:26:43;;;;;;;0.00;0.00;;;8.80;90.80;;;;;;4970158;28;20051;-64
2023/04/23 04:29:09;;;;;;;2.75;0.65;;;8.80;90.80;;;;;;4969835;28;20053;-63
2023/04/23 04:31:36;;;;;;;0.00;0.00;;;8.90;90.70;;;;;;4968865;28;20038;-64
2023/04/23 04:34:02;;;;;;;0.00;0.00;;;8.90;90.70;;;;;;4952035;28;20563;-64
2023/04/23 04:36:28;;;;;;;0.03;0.03;;;9.00;90.70;;;;;;4970869;28;20137;-64
2023/04/23 04:38:54;;;;;;;0.00;0.00;;;9.00;90.60;;;;;;4952616;28;20042;-63
2023/04/23 04:41:21;;;;;;;0.00;0.00;;;9.10;90.60;;;;;;4969552;28;20101;-63
2023/04/23 04:43:47;;;;;;;0.40;0.40;;;9.10;90.60;;;;;;4952039;28;20496;-63
2023/04/23 04:46:14;;;;;;;1.75;1.00;;;9.10;90.60;;;;;;4970033;28;20074;-64
2023/04/23 04:48:39;;;;;;;0.00;0.00;;;9.10;90.50;;;;;;4969308;28;20050;-63
2023/04/23 04:51:05;;;;;;;0.05;0.05;;;9.10;90.40;;;;;;4968384;28;20412;-64
2023/04/23 04:53:31;;;;;;;0.00;0.00;;;9.10;90.40;;;;;;4969857;28;20047;-63
2023/04/23 04:55:57;;;;;;;0.30;0.30;;;9.10;90.40;;;;;;4969525;28;20062;-63
2023/04/23 04:58:22;;;;;;;0.00;0.00;;;9.10;90.30;;;;;;4969712;28;20520;-64
2023/04/23 05:00:50;;;;;;;0.00;0.00;;;9.10;90.30;;;;;;4968982;28;20047;-63
2023/04/23 05:03:17;;;;;;;0.00;0.00;;;9.10;90.30;;;;;;4969108;28;20084;-64
2023/04/23 05:05:44;;;;;;;0.10;0.10;;;9.10;90.20;;;;;;4970852;28;20105;-64
2023/04/23 05:08:11;;;;;;;0.00;0.00;;;9.10;90.10;;;;;;4973255;28;20050;-64
2023/04/23 05:10:37;;;;;;;0.00;0.00;;;9.10;90.10;;;;;;4954780;28;20101;-64
2023/04/23 05:13:02;;;;;;;0.10;0.10;;;9.10;90.10;;;;;;4954624;28;20066;-63
2023/04/23 05:15:28;;;;;;;0.10;0.10;;;9.10;90.20;;;;;;4972833;28;20400;-64
2023/04/23 05:17:54;;;;;;;0.00;0.00;;;9.10;90.20;;;;;;4972661;28;20050;-63
2023/04/23 05:20:20;;;;;;;0.20;0.20;;;9.10;90.10;;;;;;4972487;28;20121;-63
2023/04/23 05:22:46;;;;;;;0.10;0.10;;;9.20;90.00;;;;;;4971956;28;20051;-63
2023/04/23 05:25:12;;;;;;;0.08;0.08;;;9.20;90.00;;;;;;4952913;28;20089;-64
2023/04/23 05:27:38;;;;;;;0.30;0.30;;;9.20;90.10;;;;;;4945101;28;20097;-64
2023/04/23 05:30:08;;;;;;;0.00;0.00;;;9.20;90.20;;;;;;4938744;28;20035;-63
2023/04/23 05:32:35;;;;;;;0.00;0.00;;;9.20;90.30;;;;;;4971089;28;20473;-64
2023/04/23 05:35:05;;;;;;;0.22;0.22;;;9.20;90.30;;;;;;4955040;28;20074;-64
2023/04/23 05:37:30;;;;;;;0.47;0.47;;;9.20;90.40;;;;;;4972090;28;20149;-64
2023/04/23 05:39:57;;;;;;;3.85;0.95;;;9.30;90.50;;;;;;4971912;28;20155;-64
2023/04/23 05:42:22;;;;;;;0.52;0.52;;;9.20;90.30;;;;;;4971363;28;20102;-63
2023/04/23 05:44:48;;;;;;;0.00;0.00;;;9.20;90.50;;;;;;4970523;28;20062;-64
2023/04/23 05:47:14;;;;;;;0.00;0.00;;;9.20;90.50;;;;;;4971046;28;20419;-64
2023/04/23 05:49:40;;;;;;;0.13;0.13;;;9.20;90.40;;;;;;4972513;28;20128;-63
2023/04/23 05:52:05;;;;;;;0.00;0.00;;;9.20;90.40;;;;;;4971732;28;20058;-64
2023/04/23 05:54:31;;;;;;;0.10;0.10;;;9.20;90.60;;;;;;4972054;28;20109;-63
2023/04/23 05:56:56;;;;;;;0.00;0.00;;;9.20;90.60;;;;;;4955495;28;20114;-63
2023/04/23 05:59:22;;;;;;;1.17;0.90;;;9.20;90.60;;;;;;4950865;29;20047;-64
2023/04/23 06:01:48;;;;;;;0.00;0.00;;;9.30;90.50;;;;;;4935506;29;20074;-63
2023/04/23 06:04:17;;;;;;;0.00;0.00;;;9.40;90.60;;;;;;4952799;29;20583;-63
2023/04/23 06:06:43;;;;;;;0.03;0.03;;;9.50;90.50;;;;;;4935113;29;20039;-64
2023/04/23 06:09:08;;;;;;;0.30;0.30;;;9.50;90.60;;;;;;4952250;29;20420;-63
2023/04/23 06:11:35;;;;;;;0.30;0.30;;;9.60;90.70;;;;;;4951751;29;20055;-64
2023/04/23 06:14:01;;;;;;;0.05;0.05;;;9.60;90.60;;;;;;4952547;29;20055;-63
2023/04/23 06:16:27;;;;;;;0.28;0.28;;;9.70;90.60;;;;;;4949173;28;20089;-63
2023/04/23 06:18:55;;;;;;;4.15;1.27;;;9.70;90.60;;;;;;4949721;28;20134;-64
2023/04/23 06:21:21;;;;;;;0.10;0.10;;;9.80;90.60;;;;;;4950111;29;20051;-63
2023/04/23 06:23:46;;;;;;;0.40;0.40;;;9.80;90.60;;;;;;4951857;29;20110;-63
2023/04/23 06:26:12;;;;;;;0.00;0.00;;;9.80;90.60;;;;;;4950117;29;20077;-64
2023/04/23 06:28:38;;;;;;;0.57;0.57;;;9.90;90.60;;;;;;4933873;29;20047;-63
2023/04/23 06:31:04;;;;;;;7.28;0.80;;;9.90;90.50;;;;;;4950947;29;20166;-65
2023/04/23 06:33:30;;;;;;;0.10;0.10;;;10.00;90.40;;;;;;4949543;29;20118;-64
2023/04/23 06:35:55;;;;;;;1.98;1.00;;;10.00;90.30;;;;;;4912418;29;20481;-64
2023/04/23 06:38:21;;;;;;;0.08;0.08;;;10.10;90.30;;;;;;4934689;29;20126;-63
2023/04/23 06:40:47;;;;;;;0.05;0.05;;;10.20;90.30;;;;;;4946284;29;20126;-62
2023/04/23 06:43:13;;;;;;;0.20;0.20;;;10.10;90.20;;;;;;4951558;29;20055;-62
2023/04/23 06:45:39;;;;;;;1.20;0.85;;;10.20;90.30;;;;;;4951334;29;20059;-62
2023/04/23 06:48:04;;;;;;;4.20;0.75;;;10.30;90.30;;;;;;4951509;29;20047;-62
2023/04/23 06:50:30;;;;;;;0.00;0.00;;;10.30;90.30;;;;;;4951047;29;20067;-62
2023/04/23 06:52:56;;;;;;;0.10;0.10;;;10.30;90.20;;;;;;4933305;29;20073;-62
2023/04/23 06:55:25;;;;;;;0.10;0.10;;;10.30;90.10;;;;;;4952823;28;20055;-62
2023/04/23 06:57:52;;;;;;;0.00;0.00;;;10.40;90.00;;;;;;4970528;28;20137;-62
2023/04/23 07:00:18;;;;;;;0.38;0.38;;;10.40;90.00;;;;;;4969936;28;20053;-61
2023/04/23 07:02:45;;;;;;;0.10;0.10;;;10.50;89.90;;;;;;4969782;28;20038;-62
2023/04/23 07:05:10;;;;;;;0.00;0.00;;;10.50;89.50;;;;;;4969902;28;20063;-62
2023/04/23 07:07:36;;;;;;;0.03;0.03;;;10.50;89.60;;;;;;4953103;28;20448;-62
2023/04/23 07:10:06;;;;;;;0.10;0.10;;;10.60;89.60;;;;;;4952686;28;20062;-62
2023/04/23 07:12:31;;;;;;;0.00;0.00;;;10.60;89.40;;;;;;4937800;28;20057;-62
2023/04/23 07:14:57;;;;;;;0.10;0.10;;;10.60;89.40;;;;;;4970454;28;20134;-62
2023/04/23 07:17:22;;;;;;;0.00;0.00;;;10.60;89.30;;;;;;4969321;28;20045;-62
2023/04/23 07:19:48;;;;;;;4.03;1.00;;;10.70;89.60;;;;;;4970773;28;20098;-62
2023/04/23 07:22:14;;;;;;;0.90;0.55;;;10.80;89.50;;;;;;4971017;28;20407;-62
2023/04/23 07:24:40;;;;;;;0.20;0.20;;;10.80;89.70;;;;;;4970583;28;20049;-62
2023/04/23 07:27:06;;;;;;;0.08;0.08;;;10.90;89.60;;;;;;4969577;28;20058;-62
2023/04/23 07:29:32;;;;;;;2.38;2.17;;;10.90;89.50;;;;;;4969169;28;20043;-62
2023/04/23 07:31:57;;;;;;;0.75;0.75;;;10.90;89.30;;;;;;4937125;28;20419;-62
2023/04/23 07:34:23;;;;;;;0.00;0.00;;;11.00;89.30;;;;;;4967533;28;20045;-63
2023/04/23 07:36:48;;;;;;;0.80;0.75;;;11.10;89.30;;;;;;4965026;28;20070;-63
2023/04/23 07:39:14;;;;;;;0.00;0.00;;;11.10;89.20;;;;;;4935279;28;20085;-63
2023/04/23 07:41:40;;;;;;;0.10;0.10;;;11.20;89.30;;;;;;4965234;28;20108;-62
2023/04/23 07:44:06;;;;;;;0.20;0.20;;;11.20;89.20;;;;;;4970470;28;20600;-63
2023/04/23 07:46:31;;;;;;;0.00;0.00;;;11.30;89.10;;;;;;4970224;28;20138;-63
2023/04/23 07:48:57;;;;;;;0.20;0.20;;;11.30;89.10;;;;;;4966351;28;20054;-62
2023/04/23 07:51:25;;;;;;;0.03;0.03;;;11.40;89.00;;;;;;4970011;28;20043;-62
2023/04/23 07:53:53;;;;;;;0.00;0.00;;;11.50;89.10;;;;;;4970297;28;20412;-63
2023/04/23 07:56:20;;;;;;;0.50;0.50;;;11.60;88.90;;;;;;4970024;28;20051;-63
2023/04/23 07:58:46;;;;;;;1.17;0.68;;;11.60;88.90;;;;;;4952624;28;20062;-63
2023/04/23 08:01:11;;;;;;;0.40;0.40;;;11.70;88.70;;;;;;4969969;28;20043;-63
2023/04/23 08:03:37;;;;;;;0.00;0.00;;;11.70;88.60;;;;;;4949369;28;20039;-63
2023/04/23 08:06:03;;;;;;;0.03;0.03;;;11.80;88.70;;;;;;4965681;28;20035;-63
2023/04/23 08:08:29;;;;;;;0.00;0.00;;;11.80;88.70;;;;;;4970023;28;20089;-63
2023/04/23 08:10:55;;;;;;;0.00;0.00;;;11.90;88.80;;;;;;4970102;28;20078;-63
2023/04/23 08:13:20;;;;;;;0.00;0.00;;;12.00;88.70;;;;;;4968755;28;20047;-63
2023/04/23 08:15:47;;;;;;;0.00;0.00;;;12.10;88.50;;;;;;4966891;28;20054;-61
2023/04/23 08:18:13;;;;;;;0.20;0.20;;;12.20;88.30;;;;;;4965933;28;20069;-62
2023/04/23 08:20:39;;;;;;;1.90;0.65;;;12.30;88.40;;;;;;4969242;28;20051;-62
2023/04/23 08:23:04;;;;;;;0.00;0.00;;;12.30;88.20;;;;;;4952432;28;20046;-63
2023/04/23 08:25:31;;;;;;;0.10;0.10;;;12.40;88.10;;;;;;4968985;28;20787;-62
2023/04/23 08:27:57;;;;;;;0.10;0.10;;;12.50;88.20;;;;;;4951867;28;20100;-62
2023/04/23 08:30:23;;;;;;;0.00;0.00;;;12.60;88.10;;;;;;4969876;28;20129;-63
2023/04/23 08:32:52;;;;;;;0.08;0.08;;;12.60;88.00;;;;;;4969629;28;20058;-63
2023/04/23 08:35:18;;;;;;;0.00;0.00;;;12.60;87.90;;;;;;4969431;28;20054;-63
2023/04/23 08:37:44;;;;;;;0.10;0.10;;;12.70;87.70;;;;;;4969972;28;20046;-63
2023/04/23 08:40:10;;;;;;;0.10;0.10;;;12.80;87.10;;;;;;4971735;28;20411;-63
2023/04/23 08:42:38;;;;;;;2.28;1.10;;;12.80;87.00;;;;;;4955950;28;20087;-63
2023/04/23 08:45:04;;;;;;;0.03;0.03;;;12.90;86.90;;;;;;4973082;28;20058;-63
2023/04/23 08:47:31;;;;;;;0.20;0.20;;;12.90;86.70;;;;;;4972905;28;20178;-63
2023/04/23 08:49:58;;;;;;;0.00;0.00;;;13.00;86.50;;;;;;4972828;28;20059;-63
2023/04/23 08:52:27;;;;;;;0.10;0.10;;;13.10;86.60;;;;;;4972470;28;20057;-62
2023/04/23 08:54:57;;;;;;;0.00;0.00;;;13.10;86.30;;;;;;4971437;28;20190;-63
2023/04/23 08:57:24;;;;;;;0.00;0.00;;;13.20;86.00;;;;;;4973154;28;20138;-63
2023/04/23 08:59:50;;;;;;;0.00;0.00;;;13.30;86.00;;;;;;4969632;28;20505;-63
2023/04/23 09:02:16;;;;;;;0.10;0.10;;;13.30;84.60;;;;;;4964065;28;20118;-63
2023/04/23 09:04:44;;;;;;;0.05;0.05;;;13.50;85.00;;;;;;4967789;28;20051;-63
2023/04/23 09:07:11;;;;;;;0.00;0.00;;;13.60;84.70;;;;;;4972952;28;20078;-63
2023/04/23 09:09:38;;;;;;;0.00;0.00;;;13.50;83.30;;;;;;4972689;28;20150;-63
2023/04/23 09:12:05;;;;;;;0.10;0.10;;;13.60;83.60;;;;;;4972513;28;20507;-61
2023/04/23 09:14:31;;;;;;;0.00;0.00;;;13.70;83.00;;;;;;4972983;28;20500;-62
2023/04/23 09:16:57;;;;;;;0.20;0.20;;;13.70;83.20;;;;;;4972478;28;20554;-62
2023/04/23 09:19:26;;;;;;;0.55;0.20;;;13.80;82.90;;;;;;4973160;28;20177;-62
2023/04/23 09:21:52;;;;;;;0.00;0.00;;;13.80;81.00;;;;;;4955465;28;20556;-61
2023/04/23 09:24:21;;;;;;;0.77;0.77;;;13.80;81.90;;;;;;4972794;28;20126;-61
2023/04/23 09:26:51;;;;;;;0.08;0.08;;;13.80;81.40;;;;;;4955349;28;20178;-62
2023/04/23 09:29:23;;;;;;;0.50;0.50;;;13.90;81.80;;;;;;4951538;28;20776;-61
2023/04/23 09:31:51;;;;;;;0.00;0.00;;;14.00;81.50;;;;;;4970378;28;20129;-62
2023/04/23 09:34:18;;;;;;;0.00;0.00;;;14.00;81.70;;;;;;4970479;28;20058;-62
2023/04/23 09:36:45;;;;;;;0.45;0.45;;;14.00;81.30;;;;;;4936686;28;20046;-63
2023/04/23 09:39:12;;;;;;;0.00;0.00;;;14.10;81.10;;;;;;4970376;28;20076;-62
2023/04/23 09:41:38;;;;;;;0.00;0.00;;;14.10;81.10;;;;;;4969621;28;20047;-63
2023/04/23 09:44:03;;;;;;;0.00;0.00;;;14.10;80.90;;;;;;4952253;28;20059;-62
2023/04/23 09:46:35;;;;;;;0.00;0.00;;;14.20;81.50;;;;;;4970895;28;20034;-62
2023/04/23 09:49:07;;;;;;;;;;;14.30;81.10;;;;;;4953275;28;20070;-62
2023/04/23 09:51:40;;;;;;;0.00;0.00;;;14.20;81.00;;;;;;4969405;28;19926;-62
2023/04/23 09:54:17;;;;;;;0.00;0.00;;;14.30;80.40;;;;;;4935337;28;20050;-63
2023/04/23 09:56:48;;;;;;;0.00;0.00;;;14.30;80.60;;;;;;4966611;28;20078;-62
2023/04/23 09:59:26;;;;;;;0.10;0.10;;;14.30;80.20;;;;;;4970514;28;20488;-62
2023/04/23 10:01:52;;;;;;;0.00;0.00;;;14.20;78.60;;;;;;4970481;28;20057;-63
2023/04/23 10:04:23;;;;;;;0.00;0.00;;;14.30;80.00;;;;;;4970393;28;20059;-62
2023/04/23 10:07:00;;;;;;;0.10;0.10;;;14.40;80.60;;;;;;4969912;28;20049;-62
2023/04/23 10:09:27;;;;;;;0.10;0.10;;;14.40;80.10;;;;;;4969376;28;20055;-62
2023/04/23 10:11:58;;;;;;;0.00;0.00;;;14.50;79.80;;;;;;4969038;28;20046;-61
2023/04/23 10:14:25;;;;;;;0.00;0.00;;;14.50;79.90;;;;;;4968682;28;20043;-62
2023/04/23 10:16:52;;;;;;;0.00;0.00;;;14.60;79.20;;;;;;4969014;28;20083;-62
2023/04/23 10:19:22;;;;;;;0.00;0.00;;;14.50;77.70;;;;;;4969416;28;20051;-62
2023/04/23 10:21:59;;;;;;;0.10;0.10;;;14.60;78.30;;;;;;4968300;28;20046;-61
2023/04/23 10:24:28;;;;;;;0.00;0.00;;;14.60;78.90;;;;;;4969353;28;20047;-62
2023/04/23 10:26:57;;;;;;;0.17;0.17;;;14.60;78.60;;;;;;4967284;28;20397;-63
2023/04/23 10:29:28;;;;;;;0.00;0.00;;;14.70;77.40;;;;;;4962969;28;20051;-63
2023/04/23 10:31:56;;;;;;;0.00;0.00;;;14.80;77.00;;;;;;4970196;28;20132;-63
2023/04/23 10:34:24;;;;;;;0.57;0.57;;;14.70;76.60;;;;;;4970772;28;20042;-62
2023/04/23 10:36:50;;;;;;;0.00;0.00;;;14.80;76.30;;;;;;4963266;28;20138;-63
2023/04/23 10:39:17;;;;;;;0.03;0.03;;;14.90;76.30;;;;;;4965936;28;20565;-62
2023/04/23 10:41:43;;;;;;;0.00;0.00;;;15.00;76.60;;;;;;4969954;28;20133;-63
2023/04/23 10:44:15;;;;;;;0.00;0.00;;;15.00;76.90;;;;;;4970193;28;20074;-62
2023/04/23 10:46:55;;;;;;;0.08;0.08;;;15.10;76.90;;;;;;4970470;28;20045;-63
2023/04/23 10:49:22;;;;;;;2.55;0.70;;;15.10;76.10;;;;;;4969832;28;20035;-63
2023/04/23 10:51:48;;;;;;;0.00;0.00;;;15.10;73.90;;;;;;4970834;28;20046;-63
2023/04/23 10:54:15;;;;;;;0.00;0.00;;;15.30;75.00;;;;;;4971104;28;20800;-62
2023/04/23 10:56:42;;;;;;;0.00;0.00;;;15.30;73.70;;;;;;4951676;28;20522;-62
2023/04/23 10:59:18;;;;;;;0.00;0.00;;;15.50;74.30;;;;;;4951454;29;20094;-62
2023/04/23 11:01:49;;;;;;;0.00;0.00;;;15.60;73.50;;;;;;4951567;28;20527;-62
2023/04/23 11:04:27;;;;;;;0.00;0.00;;;15.60;72.30;;;;;;4950754;29;20061;-62
2023/04/23 11:06:57;;;;;;;0.60;0.60;;;15.70;73.40;;;;;;4950959;29;20479;-62
2023/04/23 11:09:46;;;;;;;0.00;0.00;;;15.70;73.00;;;;;;4951395;29;20094;-62
2023/04/23 11:12:19;;;;;;;0.10;0.10;;;15.80;73.00;;;;;;4945145;29;20054;-63
2023/04/23 11:14:46;;;;;;;0.00;0.00;;;15.80;72.70;;;;;;4934619;29;20047;-63
2023/04/23 11:17:14;;;;;;;0.10;0.10;;;16.00;73.90;;;;;;4933901;29;20065;-62
2023/04/23 11:19:41;;;;;;;0.00;0.00;;;16.10;74.80;;;;;;4951282;29;20061;-63
2023/04/23 11:22:16;;;;;;;0.20;0.10;;;16.10;74.40;;;;;;4950220;29;20043;-62
2023/04/23 11:24:43;;;;;;;0.00;0.00;;;16.10;74.20;;;;;;4951093;29;20239;-62
2023/04/23 11:27:16;;;;;;;0.10;0.10;;;16.30;74.50;;;;;;4950925;29;20058;-62
2023/04/23 11:29:45;;;;;;;0.00;0.00;;;16.40;74.60;;;;;;4950007;29;20420;-62
2023/04/23 11:32:12;;;;;;;0.00;0.00;;;16.50;74.40;;;;;;4949591;29;20083;-63
2023/04/23 11:34:43;;;;;;;0.00;0.00;;;16.60;73.60;;;;;;4949748;29;20755;-62
2023/04/23 11:37:10;;;;;;;0.00;0.00;;;16.70;73.70;;;;;;4951311;29;20062;-64
2023/04/23 11:39:37;;;;;;;0.00;0.00;;;16.80;72.90;;;;;;4950629;29;20141;-62
2023/04/23 11:42:05;;;;;;;0.00;0.00;;;16.80;72.70;;;;;;4947462;29;20783;-62
2023/04/23 11:44:30;;;;;;;0.30;0.30;;;16.80;73.20;;;;;;4950685;29;20058;-63
2023/04/23 11:47:00;;;;;;;0.00;0.00;;;16.80;71.90;;;;;;4950129;29;20036;-63
2023/04/23 11:49:25;;;;;;;0.17;0.17;;;16.90;72.80;;;;;;4950230;29;20039;-62
2023/04/23 11:51:51;;;;;;;0.25;0.25;;;16.80;70.90;;;;;;4950765;29;20058;-62
2023/04/23 11:54:17;;;;;;;0.00;0.00;;;16.90;69.80;;;;;;4951101;29;20047;-62
2023/04/23 11:56:43;;;;;;;0.10;0.10;;;16.90;68.40;;;;;;4961310;28;20412;-62
2023/04/23 11:59:08;;;;;;;0.00;0.00;;;17.00;69.10;;;;;;4970154;28;20047;-63
2023/04/23 12:01:49;;;;;;;0.22;0.22;;;17.00;67.70;;;;;;4970176;28;20055;-63
2023/04/23 12:04:21;;;;;;;0.00;0.00;;;17.10;70.00;;;;;;4970557;28;20046;-62
2023/04/23 12:06:47;;;;;;;0.00;0.00;;;17.20;69.50;;;;;;4969939;28;20042;-62
2023/04/23 12:09:15;;;;;;;0.00;0.00;;;17.20;67.50;;;;;;4969708;28;20125;-62
2023/04/23 12:11:41;;;;;;;0.00;0.00;;;17.40;70.20;;;;;;4970083;28;20061;-62
2023/04/23 12:14:08;;;;;;;0.00;0.00;;;17.50;69.80;;;;;;4970857;28;20471;-62
2023/04/23 12:16:44;;;;;;;0.10;0.10;;;17.60;69.90;;;;;;4954817;28;20499;-62
2023/04/23 12:19:18;;;;;;;0.00;0.00;;;17.80;69.80;;;;;;4967637;28;20514;-63
2023/04/23 12:21:55;;;;;;;0.00;0.00;;;17.90;69.40;;;;;;4972362;28;20404;-62
2023/04/23 12:24:26;;;;;;;0.00;0.00;;;18.00;68.80;;;;;;4970561;28;20098;-62
2023/04/23 12:26:57;;;;;;;1.98;1.30;;;18.10;69.70;;;;;;4973095;28;20077;-62
2023/04/23 12:29:23;;;;;;;0.20;0.20;;;18.10;66.80;;;;;;4969247;28;20138;-62
2023/04/23 12:31:51;;;;;;;0.40;0.35;;;18.10;64.60;;;;;;4955107;28;20042;-62
2023/04/23 12:34:19;;;;;;;0.00;0.00;;;18.00;65.50;;;;;;4972715;28;20051;-62
2023/04/23 12:36:47;;;;;;;1.55;0.80;;;17.90;66.50;;;;;;4972688;28;20038;-62
2023/04/23 12:39:25;;;;;;;0.00;0.00;;;17.80;66.00;;;;;;4972841;28;20070;-62
2023/04/23 12:41:53;;;;;;;0.10;0.10;;;17.80;66.30;;;;;;4972588;28;20070;-62
2023/04/23 12:44:20;;;;;;;0.00;0.00;;;17.70;66.50;;;;;;4968490;28;20865;-62
2023/04/23 12:46:50;;;;;;;0.03;0.03;;;17.80;67.50;;;;;;4972796;28;20109;-62
2023/04/23 12:49:15;;;;;;;0.00;0.00;;;17.80;67.20;;;;;;4972291;28;20046;-62
2023/04/23 12:51:41;;;;;;;0.00;0.00;;;17.80;68.40;;;;;;4972668;28;20578;-63